createdAt,value
2022-08-28T00:00:59.480Z,51.90
2022-08-28T00:03:26.344Z,51.90
2022-08-28T00:05:53.551Z,51.80
2022-08-28T00:08:20.933Z,51.90
2022-08-28T00:10:48.319Z,51.90
2022-08-28T00:13:18.839Z,51.90
2022-08-28T00:15:48.749Z,51.90
2022-08-28T00:18:16.582Z,51.90
2022-08-28T00:20:44.374Z,51.90
2022-08-28T00:23:11.219Z,51.90
2022-08-28T00:25:38.298Z,51.90
2022-08-28T00:28:08.719Z,52.00
2022-08-28T00:30:41.509Z,52.00
2022-08-28T00:33:13.676Z,51.90
2022-08-28T00:35:42.191Z,52.00
2022-08-28T00:38:10.889Z,52.00
2022-08-28T00:40:39.496Z,52.40
2022-08-28T00:43:08.834Z,51.80
2022-08-28T00:45:39.806Z,51.90
2022-08-28T00:48:07.689Z,51.80
2022-08-28T00:51:00.589Z,51.80
2022-08-28T00:53:32.725Z,51.80
2022-08-28T00:56:09.489Z,51.80
2022-08-28T00:58:42.006Z,52.60
2022-08-28T01:01:09.183Z,51.90
2022-08-28T01:03:36.635Z,52.00
2022-08-28T01:06:04.399Z,52.00
2022-08-28T01:08:31.294Z,52.00
2022-08-28T01:11:01.495Z,51.90
2022-08-28T01:13:29.499Z,52.00
2022-08-28T01:15:58.076Z,52.00
2022-08-28T01:18:27.545Z,51.90
2022-08-28T01:21:20.522Z,52.60
2022-08-28T01:23:51.486Z,51.90
2022-08-28T01:26:19.832Z,51.80
2022-08-28T01:28:47.439Z,51.80
2022-08-28T01:31:15.746Z,51.70
2022-08-28T01:33:43.746Z,52.50
2022-08-28T01:36:12.506Z,52.40
2022-08-28T01:38:41.201Z,51.60
2022-08-28T01:41:08.353Z,51.60
2022-08-28T01:43:35.527Z,51.60
2022-08-28T01:46:04.701Z,51.50
2022-08-28T01:48:35.958Z,51.40
2022-08-28T01:51:04.039Z,51.50
2022-08-28T01:53:32.972Z,51.40
2022-08-28T01:56:02.795Z,52.10
2022-08-28T01:58:36.042Z,51.40
2022-08-28T02:01:25.600Z,51.40
2022-08-28T02:03:55.577Z,51.40
2022-08-28T02:06:22.504Z,51.40
2022-08-28T02:08:54.551Z,51.40
2022-08-28T02:11:24.421Z,51.30
2022-08-28T02:13:52.875Z,51.40
2022-08-28T02:16:21.765Z,51.90
2022-08-28T02:18:48.955Z,51.30
2022-08-28T02:21:15.839Z,51.30
2022-08-28T02:23:43.854Z,51.30
2022-08-28T02:26:12.320Z,51.40
2022-08-28T02:28:40.153Z,51.40
2022-08-28T02:31:10.396Z,51.30
2022-08-28T02:33:39.606Z,51.30
2022-08-28T02:36:08.458Z,51.40
2022-08-28T02:38:36.455Z,51.40
2022-08-28T02:41:04.500Z,52.10
2022-08-28T02:43:31.927Z,52.00
2022-08-28T02:45:58.877Z,51.40
2022-08-28T02:48:33.702Z,51.40
2022-08-28T02:51:02.904Z,52.10
2022-08-28T02:53:30.361Z,51.40
2022-08-28T02:55:58.524Z,51.40
2022-08-28T02:58:27.223Z,51.40
2022-08-28T03:00:54.635Z,51.30
2022-08-28T03:03:21.495Z,51.40
2022-08-28T03:05:48.295Z,51.40
2022-08-28T03:08:15.104Z,52.50
2022-08-28T03:10:42.015Z,51.40
2022-08-28T03:13:08.899Z,51.40
2022-08-28T03:15:35.736Z,51.40
2022-08-28T03:18:02.603Z,51.40
2022-08-28T03:20:34.874Z,51.30
2022-08-28T03:23:20.415Z,51.40
2022-08-28T03:25:47.296Z,52.20
2022-08-28T03:28:14.130Z,51.40
2022-08-28T03:30:41.307Z,51.40
2022-08-28T03:33:08.131Z,51.40
2022-08-28T03:35:35.240Z,51.40
2022-08-28T03:38:01.996Z,51.40
2022-08-28T03:40:29.316Z,51.40
2022-08-28T03:42:56.303Z,51.40
2022-08-28T03:45:23.524Z,51.40
2022-08-28T03:47:51.019Z,51.40
2022-08-28T03:50:18.721Z,51.40
2022-08-28T03:52:47.413Z,51.40
2022-08-28T03:55:14.726Z,52.40
2022-08-28T03:57:41.653Z,51.40
2022-08-28T04:00:12.075Z,51.40
2022-08-28T04:02:40.334Z,52.10
2022-08-28T04:05:09.443Z,51.40
2022-08-28T04:07:37.231Z,52.90
2022-08-28T04:10:05.027Z,52.20
2022-08-28T04:12:35.223Z,51.50
2022-08-28T04:15:02.962Z,51.40
2022-08-28T04:17:30.110Z,51.50
2022-08-28T04:19:57.051Z,51.40
2022-08-28T04:22:23.956Z,51.40
2022-08-28T04:24:50.740Z,51.40
2022-08-28T04:27:17.656Z,51.50
2022-08-28T04:29:44.415Z,51.10
2022-08-28T04:32:11.556Z,51.60
2022-08-28T04:34:39.135Z,51.60
2022-08-28T04:37:06.479Z,51.60
2022-08-28T04:39:34.046Z,51.50
2022-08-28T04:42:00.970Z,51.50
2022-08-28T04:44:27.859Z,51.40
2022-08-28T04:46:54.699Z,51.40
2022-08-28T04:49:23.057Z,51.40
2022-08-28T04:51:52.774Z,51.30
2022-08-28T04:54:20.131Z,51.40
2022-08-28T04:56:46.946Z,51.30
2022-08-28T04:59:13.903Z,51.30
2022-08-28T05:01:42.499Z,51.30
2022-08-28T05:04:11.513Z,51.30
2022-08-28T05:06:45.997Z,53.20
2022-08-28T05:09:15.443Z,52.00
2022-08-28T05:11:42.788Z,52.00
2022-08-28T05:14:15.400Z,49.80
2022-08-28T05:16:46.033Z,52.40
2022-08-28T05:19:14.279Z,51.20
2022-08-28T05:21:41.245Z,51.20
2022-08-28T05:24:08.756Z,51.20
2022-08-28T05:26:40.003Z,51.80
2022-08-28T05:29:07.587Z,51.10
2022-08-28T05:31:35.061Z,51.10
2022-08-28T05:34:02.420Z,51.20
2022-08-28T05:36:33.230Z,51.20
2022-08-28T05:39:01.972Z,51.20
2022-08-28T05:41:30.709Z,51.10
2022-08-28T05:44:04.699Z,51.90
2022-08-28T05:46:32.022Z,51.20
2022-08-28T05:49:00.380Z,51.30
2022-08-28T05:51:28.415Z,51.20
2022-08-28T05:53:57.417Z,51.20
2022-08-28T05:56:29.732Z,51.30
2022-08-28T05:58:59.001Z,51.20
2022-08-28T06:01:29.155Z,51.20
2022-08-28T06:04:02.247Z,51.20
2022-08-28T06:06:34.105Z,51.90
2022-08-28T06:09:04.247Z,52.30
2022-08-28T06:11:31.776Z,52.10
2022-08-28T06:14:02.681Z,52.20
2022-08-28T06:16:31.754Z,52.50
2022-08-28T06:18:59.208Z,51.80
2022-08-28T06:21:26.236Z,53.00
2022-08-28T06:23:53.219Z,52.00
2022-08-28T06:26:20.390Z,52.10
2022-08-28T06:28:47.250Z,52.10
2022-08-28T06:31:24.390Z,52.10
2022-08-28T06:33:57.188Z,53.10
2022-08-28T06:36:27.441Z,52.10
2022-08-28T06:38:55.513Z,53.20
2022-08-28T06:41:22.264Z,53.40
2022-08-28T06:43:49.150Z,52.00
2022-08-28T06:46:18.507Z,52.00
2022-08-28T06:48:45.363Z,52.80
2022-08-28T06:51:13.358Z,52.80
2022-08-28T06:53:42.003Z,52.60
2022-08-28T06:56:26.500Z,51.90
2022-08-28T06:58:56.692Z,51.90
2022-08-28T07:01:29.041Z,52.70
2022-08-28T07:03:59.505Z,52.50
2022-08-28T07:06:27.250Z,52.50
2022-08-28T07:08:54.194Z,52.60
2022-08-28T07:11:26.510Z,52.40
2022-08-28T07:13:55.147Z,51.80
2022-08-28T07:16:25.477Z,51.70
2022-08-28T07:18:52.363Z,52.50
2022-08-28T07:21:20.578Z,51.70
2022-08-28T07:23:48.270Z,52.40
2022-08-28T07:26:23.214Z,52.70
2022-08-28T07:28:51.661Z,52.30
2022-08-28T07:31:22.014Z,51.70
2022-08-28T07:33:53.513Z,52.90
2022-08-28T07:36:29.636Z,52.40
2022-08-28T07:38:59.205Z,52.40
2022-08-28T07:41:29.768Z,51.70
2022-08-28T07:44:15.214Z,51.70
2022-08-28T07:46:42.228Z,51.70
2022-08-28T07:49:09.867Z,52.70
2022-08-28T07:51:37.417Z,51.70
2022-08-28T07:54:04.675Z,52.40
2022-08-28T07:56:31.688Z,52.50
2022-08-28T07:58:59.683Z,51.50
2022-08-28T08:01:28.714Z,51.60
2022-08-28T08:04:01.196Z,51.50
2022-08-28T08:06:33.901Z,51.40
2022-08-28T08:09:02.926Z,52.00
2022-08-28T08:11:32.481Z,52.10
2022-08-28T08:14:05.818Z,52.10
2022-08-28T08:16:38.935Z,52.00
2022-08-28T08:19:09.622Z,52.10
2022-08-28T08:21:37.122Z,52.10
2022-08-28T08:24:04.175Z,51.90
2022-08-28T08:26:31.084Z,52.10
2022-08-28T08:28:59.490Z,52.10
2022-08-28T08:31:29.758Z,51.20
2022-08-28T08:34:02.389Z,51.90
2022-08-28T08:36:31.162Z,51.70
2022-08-28T08:39:00.326Z,51.20
2022-08-28T08:41:31.802Z,51.20
2022-08-28T08:44:33.294Z,51.70
2022-08-28T08:47:19.424Z,51.60
2022-08-28T08:49:57.067Z,51.00
2022-08-28T08:52:41.955Z,51.60
2022-08-28T08:55:25.067Z,51.60
2022-08-28T08:58:00.911Z,51.50
2022-08-28T09:00:28.932Z,50.90
2022-08-28T09:03:06.466Z,51.90
2022-08-28T09:05:47.867Z,51.50
2022-08-28T09:08:33.888Z,51.40
2022-08-28T09:11:12.790Z,50.90
2022-08-28T09:14:02.722Z,51.50
2022-08-28T09:16:37.811Z,51.40
2022-08-28T09:19:06.138Z,51.50
2022-08-28T09:21:38.688Z,50.90
2022-08-28T09:24:11.786Z,50.80
2022-08-28T09:26:40.425Z,51.80
2022-08-28T09:29:16.474Z,50.80
2022-08-28T09:31:44.374Z,50.80
2022-08-28T09:34:36.777Z,51.30
2022-08-28T09:37:08.359Z,51.30
2022-08-28T09:39:38.600Z,51.30
2022-08-28T09:42:33.007Z,50.60
2022-08-28T09:45:20.880Z,51.20
2022-08-28T09:47:58.207Z,51.30
2022-08-28T09:50:54.451Z,51.40
2022-08-28T09:53:22.350Z,51.10
2022-08-28T09:56:18.473Z,50.50
2022-08-28T09:58:59.691Z,50.50
2022-08-28T10:01:58.947Z,51.10
2022-08-28T10:05:05.350Z,50.40
2022-08-28T10:08:01.210Z,50.90
2022-08-28T10:10:38.546Z,50.90
2022-08-28T10:13:14.163Z,51.30
2022-08-28T10:16:09.833Z,50.80
2022-08-28T10:18:39.946Z,50.80
2022-08-28T10:21:36.075Z,50.80
2022-08-28T10:24:18.480Z,51.80
2022-08-28T10:27:16.558Z,51.30
2022-08-28T10:30:07.926Z,50.80
2022-08-28T10:33:07.925Z,51.10
2022-08-28T10:36:01.709Z,50.80
2022-08-28T10:38:53.006Z,50.00
2022-08-28T10:41:25.285Z,50.60
2022-08-28T10:44:00.642Z,50.60
2022-08-28T10:46:30.670Z,49.90
2022-08-28T10:49:08.419Z,50.00
2022-08-28T10:51:45.717Z,50.50
2022-08-28T10:54:40.975Z,49.90
2022-08-28T10:57:39.646Z,49.90
2022-08-28T11:00:14.232Z,50.40
2022-08-28T11:02:45.928Z,49.70
2022-08-28T11:05:13.072Z,50.50
2022-08-28T11:07:53.763Z,49.70
2022-08-28T11:10:45.107Z,50.30
2022-08-28T11:13:12.916Z,49.70
2022-08-28T11:15:45.837Z,51.10
2022-08-28T11:18:18.874Z,50.30
2022-08-28T11:21:09.876Z,50.40
2022-08-28T11:23:59.596Z,49.60
2022-08-28T11:26:58.392Z,50.20
2022-08-28T11:29:56.662Z,50.10
2022-08-28T11:32:32.778Z,50.10
2022-08-28T11:35:37.670Z,52.50
2022-08-28T11:38:05.485Z,49.50
2022-08-28T11:40:32.396Z,49.40
2022-08-28T11:43:20.674Z,49.40
2022-08-28T11:46:10.489Z,49.80
2022-08-28T11:48:39.330Z,49.30
2022-08-28T11:51:18.286Z,50.10
2022-08-28T11:54:09.286Z,50.30
2022-08-28T11:56:48.141Z,49.90
2022-08-28T11:59:35.461Z,49.30
2022-08-28T12:02:40.241Z,49.90
2022-08-28T12:05:09.454Z,49.90
2022-08-28T12:07:42.541Z,50.10
2022-08-28T12:10:24.680Z,49.40
2022-08-28T12:13:29.706Z,49.50
2022-08-28T12:16:07.504Z,50.70
2022-08-28T12:18:40.404Z,50.60
2022-08-28T12:21:14.522Z,50.90
2022-08-28T12:24:09.926Z,51.70
2022-08-28T12:26:47.075Z,51.80
2022-08-28T12:29:33.419Z,51.10
2022-08-28T12:32:18.902Z,51.10
2022-08-28T12:34:50.663Z,51.50
2022-08-28T12:37:50.806Z,50.90
2022-08-28T12:40:37.645Z,50.70
2022-08-28T12:43:10.459Z,51.10
2022-08-28T12:45:49.512Z,51.30
2022-08-28T12:48:34.253Z,50.40
2022-08-28T12:51:04.156Z,50.30
2022-08-28T12:53:45.351Z,51.30
2022-08-28T12:56:14.553Z,52.90
2022-08-28T12:58:42.607Z,51.00
2022-08-28T13:01:21.552Z,50.20
2022-08-28T13:03:56.762Z,51.10
2022-08-28T13:06:32.724Z,50.80
2022-08-28T13:09:27.247Z,50.70
2022-08-28T13:11:54.407Z,50.80
2022-08-28T13:14:43.060Z,50.90
2022-08-28T13:17:11.623Z,50.70
2022-08-28T13:19:39.034Z,49.90
2022-08-28T13:22:09.213Z,49.80
2022-08-28T13:24:35.954Z,49.90
2022-08-28T13:27:16.339Z,49.80
2022-08-28T13:30:02.392Z,49.70
2022-08-28T13:32:34.931Z,50.30
2022-08-28T13:35:28.307Z,49.70
2022-08-28T13:37:57.969Z,51.80
2022-08-28T13:40:58.076Z,50.30
2022-08-28T13:43:28.478Z,50.20
2022-08-28T13:45:55.451Z,49.60
2022-08-28T13:48:25.727Z,49.70
2022-08-28T13:51:05.128Z,51.00
2022-08-28T13:53:37.192Z,49.70
2022-08-28T13:56:04.958Z,50.20
2022-08-28T13:58:32.147Z,49.40
2022-08-28T14:00:59.531Z,49.40
2022-08-28T14:03:35.847Z,50.50
2022-08-28T14:06:09.079Z,49.40
2022-08-28T14:08:35.847Z,50.00
2022-08-28T14:11:04.259Z,49.20
2022-08-28T14:13:31.346Z,49.20
2022-08-28T14:15:58.507Z,49.10
2022-08-28T14:18:26.144Z,49.10
2022-08-28T14:20:52.980Z,50.10
2022-08-28T14:23:20.035Z,49.10
2022-08-28T14:25:47.556Z,49.00
2022-08-28T14:28:14.803Z,49.00
2022-08-28T14:30:46.682Z,48.90
2022-08-28T14:33:16.723Z,48.90
2022-08-28T14:35:43.627Z,49.90
2022-08-28T14:38:11.282Z,48.90
2022-08-28T14:40:40.535Z,50.40
2022-08-28T14:43:09.934Z,49.80
2022-08-28T14:45:48.126Z,49.00
2022-08-28T14:48:17.121Z,49.70
2022-08-28T14:50:46.802Z,49.70
2022-08-28T14:53:15.103Z,49.50
2022-08-28T14:55:44.884Z,49.70
2022-08-28T14:58:12.712Z,51.40
2022-08-28T15:00:42.819Z,49.70
2022-08-28T15:03:10.081Z,49.70
2022-08-28T15:05:36.849Z,49.80
2022-08-28T15:08:10.577Z,49.00
2022-08-28T15:10:38.844Z,49.70
2022-08-28T15:13:08.988Z,49.00
2022-08-28T15:15:41.185Z,49.00
2022-08-28T15:18:10.136Z,48.90
2022-08-28T15:20:42.803Z,49.60
2022-08-28T15:23:10.054Z,49.50
2022-08-28T15:25:37.814Z,48.80
2022-08-28T15:28:05.115Z,48.80
2022-08-28T15:30:32.295Z,48.80
2022-08-28T15:32:59.143Z,48.80
2022-08-28T15:35:25.959Z,48.80
2022-08-28T15:37:53.532Z,48.80
2022-08-28T15:40:39.825Z,48.70
2022-08-28T15:43:06.778Z,49.50
2022-08-28T15:45:37.822Z,49.70
2022-08-28T15:48:05.330Z,49.40
2022-08-28T15:50:32.208Z,49.40
2022-08-28T15:52:59.336Z,49.60
2022-08-28T15:55:27.261Z,48.70
2022-08-28T15:57:55.018Z,48.60
2022-08-28T16:00:22.759Z,48.70
2022-08-28T16:02:49.860Z,50.20
2022-08-28T16:05:17.290Z,49.50
2022-08-28T16:07:44.646Z,48.60
2022-08-28T16:10:13.409Z,48.60
2022-08-28T16:12:40.942Z,48.60
2022-08-28T16:15:08.773Z,49.30
2022-08-28T16:17:35.848Z,49.30
2022-08-28T16:20:06.352Z,49.50
2022-08-28T16:22:39.063Z,48.60
2022-08-28T16:25:06.840Z,48.50
2022-08-28T16:27:34.169Z,49.30
2022-08-28T16:30:01.059Z,48.50
2022-08-28T16:32:27.873Z,48.50
2022-08-28T16:34:54.600Z,48.40
2022-08-28T16:37:21.856Z,48.50
2022-08-28T16:39:54.569Z,48.40
2022-08-28T16:42:22.907Z,49.20
2022-08-28T16:44:49.826Z,49.20
2022-08-28T16:47:16.603Z,48.50
2022-08-28T16:49:43.472Z,48.60
2022-08-28T16:52:10.320Z,48.60
2022-08-28T16:54:37.242Z,48.70
2022-08-28T16:57:12.088Z,48.80
2022-08-28T16:59:38.954Z,48.90
2022-08-28T17:02:06.041Z,48.90
2022-08-28T17:04:33.491Z,48.90
2022-08-28T17:07:00.189Z,49.80
2022-08-28T17:09:27.081Z,51.20
2022-08-28T17:11:54.131Z,50.10
2022-08-28T17:14:22.007Z,49.20
2022-08-28T17:16:49.407Z,52.20
2022-08-28T17:19:16.767Z,49.30
2022-08-28T17:22:02.576Z,50.20
2022-08-28T17:24:30.939Z,50.10
2022-08-28T17:27:00.883Z,49.40
2022-08-28T17:29:30.078Z,50.40
2022-08-28T17:31:56.927Z,50.40
2022-08-28T17:34:28.098Z,49.50
2022-08-28T17:36:57.011Z,50.70
2022-08-28T17:39:25.145Z,49.60
2022-08-28T17:41:52.046Z,49.60
2022-08-28T17:44:18.909Z,50.60
2022-08-28T17:46:45.982Z,49.90
2022-08-28T17:49:12.897Z,49.70
2022-08-28T17:51:43.697Z,49.70
2022-08-28T17:54:18.215Z,50.40
2022-08-28T17:56:45.894Z,50.60
2022-08-28T17:59:13.732Z,49.80
2022-08-28T18:01:42.187Z,49.90
2022-08-28T18:04:09.281Z,49.90
2022-08-28T18:06:36.491Z,49.90
2022-08-28T18:09:05.093Z,50.70
2022-08-28T18:11:31.954Z,50.70
2022-08-28T18:13:59.729Z,50.90
2022-08-28T18:16:31.080Z,50.60
2022-08-28T18:19:00.055Z,50.80
2022-08-28T18:21:27.726Z,50.80
2022-08-28T18:23:54.610Z,50.80
2022-08-28T18:26:21.389Z,50.10
2022-08-28T18:28:49.024Z,50.20
2022-08-28T18:31:16.144Z,50.90
2022-08-28T18:33:42.990Z,51.10
2022-08-28T18:36:11.079Z,51.10
2022-08-28T18:38:38.315Z,50.20
2022-08-28T18:41:06.359Z,51.00
2022-08-28T18:43:33.310Z,50.90
2022-08-28T18:46:01.986Z,51.20
2022-08-28T18:48:29.039Z,50.90
2022-08-28T18:50:55.820Z,51.20
2022-08-28T18:55:53.766Z,50.20
2022-08-28T18:58:23.116Z,50.20
2022-08-28T19:00:50.153Z,50.20
2022-08-28T19:08:12.451Z,50.20
2022-08-28T19:15:36.216Z,50.40
2022-08-28T19:18:05.122Z,50.20
2022-08-28T19:20:32.230Z,50.20
2022-08-28T19:22:59.535Z,50.20
2022-08-28T19:25:30.407Z,50.20
2022-08-28T19:30:32.833Z,50.30
2022-08-28T19:50:14.828Z,50.20
2022-08-28T19:55:22.079Z,50.20
2022-08-28T20:00:22.994Z,50.20
2022-08-28T20:02:52.164Z,50.30
2022-08-28T20:05:20.732Z,50.20
2022-08-28T20:10:16.437Z,50.30
2022-08-28T20:15:17.397Z,50.30
2022-08-28T20:17:49.876Z,50.50
2022-08-28T20:20:24.561Z,50.40
2022-08-28T20:22:54.901Z,50.40
2022-08-28T20:25:23.576Z,50.30
2022-08-28T20:30:18.204Z,50.30
2022-08-28T20:32:45.107Z,50.40
2022-08-28T20:35:13.405Z,50.40
2022-08-28T20:37:44.676Z,50.40
2022-08-28T20:40:17.080Z,50.40
2022-08-28T20:42:44.675Z,50.40
2022-08-28T20:45:13.292Z,50.50
2022-08-28T20:47:40.166Z,50.50
2022-08-28T20:50:07.535Z,50.40
2022-08-28T20:52:34.678Z,50.50
2022-08-28T20:55:01.879Z,50.50
2022-08-28T20:57:30.671Z,50.50
2022-08-28T21:02:32.352Z,50.60
2022-08-28T21:07:28.162Z,50.50
2022-08-28T21:12:36.291Z,50.60
2022-08-28T21:15:05.292Z,50.60
2022-08-28T21:20:02.795Z,50.70
2022-08-28T21:22:31.551Z,50.60
2022-08-28T21:24:58.699Z,50.70
2022-08-28T21:27:25.535Z,50.70
2022-08-28T21:29:56.305Z,50.70
2022-08-28T21:34:50.397Z,50.70
2022-08-28T21:39:44.551Z,50.80
2022-08-28T21:44:39.328Z,50.80
2022-08-28T21:49:35.327Z,50.80
2022-08-28T21:54:32.701Z,50.90
2022-08-28T22:07:02.192Z,50.90
2022-08-28T22:09:29.104Z,51.00
2022-08-28T22:11:55.839Z,50.90
2022-08-28T22:14:25.036Z,51.00
2022-08-28T22:19:19.568Z,51.00
2022-08-28T22:22:04.920Z,50.90
2022-08-28T22:27:01.112Z,51.00
2022-08-28T22:32:05.363Z,50.90
2022-08-28T22:34:38.670Z,51.00
2022-08-28T22:37:06.090Z,51.00
2022-08-28T22:39:33.076Z,51.00
2022-08-28T22:42:00.134Z,51.00
2022-08-28T22:44:27.059Z,51.00
2022-08-28T22:54:17.330Z,51.00
2022-08-28T23:04:10.321Z,51.10
2022-08-28T23:09:08.373Z,51.00
2022-08-28T23:11:36.393Z,51.10
2022-08-28T23:14:04.795Z,51.00
2022-08-28T23:16:33.479Z,51.10
2022-08-28T23:21:43.982Z,51.00
2022-08-28T23:24:16.022Z,51.00
2022-08-28T23:26:44.553Z,51.10
2022-08-28T23:29:12.619Z,51.00
2022-08-28T23:31:39.585Z,51.00
2022-08-28T23:34:06.894Z,51.00
2022-08-28T23:36:35.674Z,51.10
2022-08-28T23:46:25.331Z,51.10
2022-08-28T23:51:21.542Z,51.10
2022-08-28T23:58:45.551Z,51.10
